Isle of North Uist, United Kingdom
Current Conditions -  °F | °C
As of 11:50 AM on Wednesday 28 Jan 2015 (Local Time) from EGPL Reporting Station
Snow Showers Snow Showers  
Wind Chill: 26°   Ceiling: 2000
Heat Index: 39°   Visibility: 5mi
Dew Point: 32°   Wind: 37mph
Humidity: 75%   Direction: 300°WNW
Pressure: 29.15"   Gusts: NA
Location:  57.6°N, 7.16°W
Report Text: EGPL 281150Z 30032KT 8000 -SHRASN FEW012CB BKN020 04/00 Q0987
Loading
Personal Weather Stations






























Interactive Weather Map New forecast layout! Learn more

10-Day Weather Forecast

Advertisements
Track Severe Weather on mobile